Fairchem Charger — V7RD4 — position and weather

sailwx.info

Track history (hours):
 
Tides and Currents Weather Stations Pressure Air Temp Water Temp Dewpoint Dewpoint Depression Visibility Wind Speed Wind Dir Waves Ship Positions

Fairchem Charger

Last reported at 2018-Feb-11 08:04 UTC. Time now 2018-Feb-20 03:57 UTC.
Position N 38°22' W 010°01'.
Warning: this ship's position is 8 days out of date.

Length 146 m; draft 8.7 m.

Type: Ship (hazmat cat B). MMSI: 538003481.

Date/timePositionNaut miles runAvg speedWind from/ knotsBaromVisibWave heightAir tempDewpointWater temp
2018-Feb-11 08:04N 38°22' W 010°01'313.2
2018-Feb-11 07:51N 38°25' W 010°02'513.0
2018-Feb-11 07:30N 38°29' W 010°03'713.2
2018-Feb-11 06:59N 38°36' W 010°05'613.1
2018-Feb-11 06:30N 38°42' W 010°07'713.1
2018-Feb-11 06:00N 38°49' W 010°08'713.1
2018-Feb-11 05:31N 38°55' W 010°08'712.9
2018-Feb-11 04:59N 39°02' W 010°07'612.9
2018-Feb-11 04:30N 39°08' W 010°06'1212.7
2018-Feb-11 03:32N 39°20' W 010°06'  
2018-Feb-07 09:30N 39°04' W 009°56'5 9.9
2018-Feb-07 09:00N 38°59' W 009°56'510.1
2018-Feb-07 08:30N 38°54' W 009°57'510.2
2018-Feb-07 08:00N 38°49' W 009°57'510.4
2018-Feb-07 07:30N 38°44' W 009°56'510.4
2018-Feb-07 07:00N 38°39' W 009°56'610.8
2018-Feb-07 06:30N 38°33' W 009°54'611.3
2018-Feb-07 06:00N 38°28' W 009°52'711.6
2018-Feb-07 05:26N 38°21' W 009°50'3312.3
2018-Feb-07 02:46N 37°50' W 009°41'  
2018-Feb-04 04:38N 35°58' W 005°34'111.0
2018-Feb-04 04:30N 35°58' W 005°33'510.3
2018-Feb-04 04:00N 35°60' W 005°27'5 9.9
2018-Feb-04 03:30N 36°01' W 005°21'5 9.9
2018-Feb-04 02:59N 36°03' W 005°15'223 5.6
2018-Feb-02 11:12N 37°32' W 000°59'1 5.5
2018-Feb-02 10:57N 37°31' W 000°58'3 5.7
2018-Feb-02 10:28N 37°29' W 000°55'3 6.0
2018-Feb-02 09:59N 37°28' W 000°52'510.5
2018-Feb-02 09:30N 37°27' W 000°46'510.7
2018-Feb-02 09:00N 37°27' W 000°39'811.8
2018-Feb-02 08:20N 37°26' W 000°29'  
Track history (hours):
 
Tides and Currents Weather Stations Pressure Air Temp Water Temp Dewpoint Dewpoint Depression Visibility Wind Speed Wind Dir Waves Ship Positions

Fairchem Charger

Last reported at 2018-Feb-11 08:04 UTC. Time now 2018-Feb-20 03:57 UTC.
Position N 38°22' W 010°01'.
Warning: this ship's position is 8 days out of date.

Length 146 m; draft 8.7 m.

Type: Ship (hazmat cat B). MMSI: 538003481.

Date/timePositionNaut miles runAvg speedWind from/ knotsBaromVisibWave heightAir tempDewpointWater temp
2018-Feb-11 08:04N 38°22' W 010°01'313.2
2018-Feb-11 07:51N 38°25' W 010°02'513.0
2018-Feb-11 07:30N 38°29' W 010°03'713.2
2018-Feb-11 06:59N 38°36' W 010°05'613.1
2018-Feb-11 06:30N 38°42' W 010°07'713.1
2018-Feb-11 06:00N 38°49' W 010°08'713.1
2018-Feb-11 05:31N 38°55' W 010°08'712.9
2018-Feb-11 04:59N 39°02' W 010°07'612.9
2018-Feb-11 04:30N 39°08' W 010°06'1212.7
2018-Feb-11 03:32N 39°20' W 010°06'  
2018-Feb-07 09:30N 39°04' W 009°56'5 9.9
2018-Feb-07 09:00N 38°59' W 009°56'510.1
2018-Feb-07 08:30N 38°54' W 009°57'510.2
2018-Feb-07 08:00N 38°49' W 009°57'510.4
2018-Feb-07 07:30N 38°44' W 009°56'510.4
2018-Feb-07 07:00N 38°39' W 009°56'610.8
2018-Feb-07 06:30N 38°33' W 009°54'611.3
2018-Feb-07 06:00N 38°28' W 009°52'711.6
2018-Feb-07 05:26N 38°21' W 009°50'3312.3
2018-Feb-07 02:46N 37°50' W 009°41'  
2018-Feb-04 04:38N 35°58' W 005°34'111.0
2018-Feb-04 04:30N 35°58' W 005°33'510.3
2018-Feb-04 04:00N 35°60' W 005°27'5 9.9
2018-Feb-04 03:30N 36°01' W 005°21'5 9.9
2018-Feb-04 02:59N 36°03' W 005°15'223 5.6
2018-Feb-02 11:12N 37°32' W 000°59'1 5.5
2018-Feb-02 10:57N 37°31' W 000°58'3 5.7
2018-Feb-02 10:28N 37°29' W 000°55'3 6.0
2018-Feb-02 09:59N 37°28' W 000°52'510.5
2018-Feb-02 09:30N 37°27' W 000°46'510.7
2018-Feb-02 09:00N 37°27' W 000°39'811.8
2018-Feb-02 08:20N 37°26' W 000°29'  

Dump ship's entire track history